Mount Pleasant, IA

9:52 PM CST on February 09, 2016 (GMT -0600)
Mount Pleasant Municipal | | Change Station
CLOSE
Current Station
Airport
Location: Mount Pleasant,
Elevation: 735 ft
Nearby Weather Stations

Elev 735 ft 40.95 °N, 91.51 °W | Updated 17 minutes ago

Clear
Clear
16 °F
Feels Like 2 °F
N
13
Wind Variable Wind from NW
Gusts 20 mph

Today
High -- | Low -- °F
--% Chance of Precip.
Yesterday
High -- | Low -- °F
Precip. -- in
Pressure 30.13 in
Visibility 10.0 miles
Clouds Clear
Windchill 2 °F
Dew Point 7 °F
Humidity 69%
Rainfall 0.00 in
Snow Depth Not available.
7:08 AM 5:32 PM
Waxing Crescent, 3% visible
METAR KMPZ 100335Z AUTO 31011G17KT 10SM CLR M09/M14 A3013 RMK AO2 T10901138
Pressure 30.13 in
Visibility 10.0 miles
Clouds Clear
Windchill 2 °F
Dew Point 7 °F
Humidity 69%
Rainfall 0.00 in
Snow Depth Not available.
7:08 AM 5:32 PM
Waxing Crescent, 3% visible
METAR KMPZ 100335Z AUTO 31011G17KT 10SM CLR M09/M14 A3013 RMK AO2 T10901138

10-Day Weather Forecast

Almanac

Astronomy

Feb. 09, 2016 Rise Set
Actual Time
Civil Twilight
Nautical Twilight
Astronomical Twilight
Moon
Length of Visible Light
Length of Day
Tomorrow will be .
, % of the Moon is Illuminated

Today's Extremes

State Highs State Lows

Community

WunderPhotos

Upload Photos

1,891,792 photos uploaded!

WunderBlog® & News

Nearby

Air Quality

  Air Quality AQ Index Pollutant
Not available.

Snow Depth

Station Depth Elevation

Earthquake Activity

City Distance Mag. Time & Date
Minimum magnitude displayed is 2.5.

Coastal Water Temperatures

Place Temperature

Stations

Nearby Weather Stations

Station Location Temp. Windchill Dew Point Humidity Wind Precip. Elev Updated Type
                   

Watches & Warnings

There are currently no watches in effect.